Time;durP1;ratioP1;P1;durP2;ratioP2;P2;SDS_P1;SDS_P2;PMS_P1;PMS_P2;Temp;Humidity;BMP_temperature;BMP_pressure;BME280_temperature;BME280_humidity;BME280_pressure;Samples;Min_cycle;Max_cycle;Signal;HPM_P1;HPM_P2
2022/12/09 00:01:33;;;;;;;17.80;12.68;;;;;;;;;;5063788;28;20094;-78
2022/12/09 00:03:59;;;;;;;17.92;12.98;;;;;;;;;;5056177;28;20639;-78
2022/12/09 00:06:26;;;;;;;16.65;12.32;;;;;;;;;;5053932;28;20125;-78
2022/12/09 00:08:53;;;;;;;22.13;13.10;;;;;;;;;;5056032;28;20051;-77
2022/12/09 00:11:19;;;;;;;18.75;12.25;;;;;;;;;;5059723;28;20044;-77
2022/12/09 00:13:56;;;;;;;16.45;11.93;;;;;;;;;;5065968;28;20048;-78
2022/12/09 00:16:22;;;;;;;16.45;11.68;;;;;;;;;;5056614;28;20048;-78
2022/12/09 00:18:49;;;;;;;19.05;11.82;;;;;;;;;;5060973;28;20492;-78
2022/12/09 00:21:19;;;;;;;17.30;12.02;;;;;;;;;;5064755;28;20110;-77
2022/12/09 00:23:45;;;;;;;17.58;11.10;;;;;;;;;;5058737;28;20434;-78
2022/12/09 00:26:12;;;;;;;15.38;10.77;;;;;;;;;;5067248;28;20098;-78
2022/12/09 00:28:38;;;;;;;16.58;11.95;;;;;;;;;;5065929;28;20127;-77
2022/12/09 00:31:05;;;;;;;19.25;12.10;;;;;;;;;;5065086;28;20453;-78
2022/12/09 00:33:32;;;;;;;16.20;12.02;;;;;;;;;;5066605;28;20049;-78
2022/12/09 00:36:08;;;;;;;17.52;11.77;;;;;;;;;;5062131;28;20076;-77
2022/12/09 00:38:35;;;;;;;17.02;11.60;;;;;;;;;;5064818;28;20048;-78
2022/12/09 00:41:01;;;;;;;16.45;11.43;;;;;;;;;;5052444;28;20515;-78
2022/12/09 00:43:27;;;;;;;17.23;11.90;;;;;;;;;;5056884;28;20509;-78
2022/12/09 00:45:53;;;;;;;17.30;11.45;;;;;;;;;;5059217;28;20098;-78
2022/12/09 00:48:19;;;;;;;16.70;11.32;;;;;;;;;;5062665;28;20040;-78
2022/12/09 00:50:45;;;;;;;15.88;11.00;;;;;;;;;;5054771;28;20436;-78
2022/12/09 00:53:11;;;;;;;17.98;11.57;;;;;;;;;;5055115;28;20040;-78
2022/12/09 00:55:38;;;;;;;18.75;12.38;;;;;;;;;;5057353;28;20071;-77
2022/12/09 00:58:04;;;;;;;16.40;12.20;;;;;;;;;;5055330;28;20041;-78
2022/12/09 01:00:30;;;;;;;17.48;11.00;;;;;;;;;;5059114;28;20388;-78
2022/12/09 01:02:56;;;;;;;17.58;12.13;;;;;;;;;;5057327;28;20044;-78
2022/12/09 01:05:25;;;;;;;16.67;11.48;;;;;;;;;;5054719;28;20055;-78
2022/12/09 01:07:51;;;;;;;17.85;11.98;;;;;;;;;;5057004;28;20063;-78
2022/12/09 01:10:17;;;;;;;16.10;11.60;;;;;;;;;;5056376;28;20043;-78
2022/12/09 01:12:43;;;;;;;18.73;12.43;;;;;;;;;;5063974;28;20158;-78
2022/12/09 01:15:10;;;;;;;16.88;12.02;;;;;;;;;;5058833;28;20438;-78
2022/12/09 01:17:36;;;;;;;16.98;11.45;;;;;;;;;;5061060;28;20628;-78
2022/12/09 01:20:04;;;;;;;21.67;11.82;;;;;;;;;;5066212;28;20055;-78
2022/12/09 01:22:30;;;;;;;18.10;12.00;;;;;;;;;;5065589;28;20044;-78
2022/12/09 01:24:56;;;;;;;17.92;11.23;;;;;;;;;;5058734;28;20511;-77
2022/12/09 01:27:22;;;;;;;18.33;11.55;;;;;;;;;;5060041;28;20044;-77
2022/12/09 01:29:48;;;;;;;17.70;12.07;;;;;;;;;;5062938;28;20036;-78
2022/12/09 01:32:14;;;;;;;17.60;12.07;;;;;;;;;;5063374;28;20123;-78
2022/12/09 01:34:40;;;;;;;19.23;11.43;;;;;;;;;;5063004;28;20055;-77
2022/12/09 01:37:06;;;;;;;17.27;11.77;;;;;;;;;;5067186;28;20041;-77
2022/12/09 01:39:32;;;;;;;18.20;11.70;;;;;;;;;;5061546;28;20106;-78
2022/12/09 01:42:01;;;;;;;15.20;11.23;;;;;;;;;;5060789;28;20447;-77
2022/12/09 01:44:27;;;;;;;15.35;10.88;;;;;;;;;;5056520;28;20059;-78
2022/12/09 01:46:54;;;;;;;17.48;11.90;;;;;;;;;;5053759;28;20061;-78
2022/12/09 01:49:23;;;;;;;16.02;11.25;;;;;;;;;;5060132;28;20037;-78
2022/12/09 01:51:54;;;;;;;15.52;10.70;;;;;;;;;;5057198;28;20092;-78
2022/12/09 01:54:23;;;;;;;17.20;11.65;;;;;;;;;;5054928;28;20123;-77
2022/12/09 01:56:49;;;;;;;15.52;11.30;;;;;;;;;;5054873;28;20072;-77
2022/12/09 01:59:15;;;;;;;16.83;11.15;;;;;;;;;;5056112;28;20715;-77
2022/12/09 02:01:43;;;;;;;13.90;10.85;;;;;;;;;;5059899;28;20041;-78
2022/12/09 02:04:09;;;;;;;14.88;11.70;;;;;;;;;;5056483;28;20098;-78
2022/12/09 02:06:36;;;;;;;14.43;11.05;;;;;;;;;;5056217;28;20491;-78
2022/12/09 02:09:03;;;;;;;14.82;11.15;;;;;;;;;;5054440;28;20060;-78
2022/12/09 02:11:29;;;;;;;15.85;11.35;;;;;;;;;;5057285;28;20056;-78
2022/12/09 02:14:07;;;;;;;15.43;11.63;;;;;;;;;;5060510;28;20056;-78
2022/12/09 02:16:40;;;;;;;15.23;12.02;;;;;;;;;;5061063;28;23319;-77
2022/12/09 02:19:21;;;;;;;15.50;11.50;;;;;;;;;;5065683;28;20049;-78
2022/12/09 02:21:54;;;;;;;17.95;12.15;;;;;;;;;;5063905;28;20045;-78
2022/12/09 02:24:38;;;;;;;13.43;10.68;;;;;;;;;;5066776;28;20055;-78
2022/12/09 02:27:10;;;;;;;17.85;12.70;;;;;;;;;;5062382;28;20092;-78
2022/12/09 02:29:36;;;;;;;16.52;11.85;;;;;;;;;;5064725;28;21339;-77
2022/12/09 02:32:18;;;;;;;17.25;11.45;;;;;;;;;;5064443;28;20452;-78
2022/12/09 02:34:47;;;;;;;16.20;11.52;;;;;;;;;;5065345;28;20396;-77
2022/12/09 02:37:32;;;;;;;17.13;12.35;;;;;;;;;;5062558;28;20048;-78
2022/12/09 02:40:01;;;;;;;17.20;12.48;;;;;;;;;;5064467;28;20047;-78
2022/12/09 02:42:31;;;;;;;15.82;12.15;;;;;;;;;;5062642;28;20037;-78
2022/12/09 02:44:57;;;;;;;15.93;12.50;;;;;;;;;;5068177;28;20040;-78
2022/12/09 02:47:25;;;;;;;17.40;13.30;;;;;;;;;;5064665;28;20060;-78
2022/12/09 02:49:54;;;;;;;17.35;13.05;;;;;;;;;;5058973;28;20670;-77
2022/12/09 02:52:22;;;;;;;17.17;12.65;;;;;;;;;;5063863;28;20091;-77
2022/12/09 02:54:48;;;;;;;17.55;13.02;;;;;;;;;;5070179;28;20037;-77
2022/12/09 02:57:17;;;;;;;17.15;12.88;;;;;;;;;;5064424;28;20087;-78
2022/12/09 02:59:43;;;;;;;17.73;12.57;;;;;;;;;;5063337;28;20052;-77
2022/12/09 03:02:42;;;;;;;20.25;13.90;;;;;;;;;;5063608;28;20044;-78
2022/12/09 03:05:29;;;;;;;21.50;13.95;;;;;;;;;;5038582;28;20053;-77
2022/12/09 03:07:58;;;;;;;17.70;12.77;;;;;;;;;;5064823;28;20060;-77
2022/12/09 03:10:33;;;;;;;19.70;13.00;;;;;;;;;;5067657;28;20045;-78
2022/12/09 03:13:03;;;;;;;16.33;12.48;;;;;;;;;;5066706;28;20049;-77
2022/12/09 03:15:31;;;;;;;18.20;13.63;;;;;;;;;;5064345;28;20056;-78
2022/12/09 03:18:00;;;;;;;17.58;12.68;;;;;;;;;;5056046;28;20121;-78
2022/12/09 03:20:27;;;;;;;18.25;12.70;;;;;;;;;;5058766;28;21427;-77
2022/12/09 03:22:56;;;;;;;18.58;13.00;;;;;;;;;;5057393;28;20056;-77
2022/12/09 03:25:26;;;;;;;19.17;13.43;;;;;;;;;;5056295;28;20083;-78
2022/12/09 03:27:56;;;;;;;19.33;13.43;;;;;;;;;;5057062;28;20069;-77
2022/12/09 03:30:22;;;;;;;19.33;13.50;;;;;;;;;;5061643;28;20044;-77
2022/12/09 03:32:49;;;;;;;17.17;12.77;;;;;;;;;;5058320;28;20131;-77
2022/12/09 03:35:22;;;;;;;18.88;13.35;;;;;;;;;;5057430;28;21769;-77
2022/12/09 03:37:48;;;;;;;;;;;;;;;;;;5058026;28;20048;-77
2022/12/09 03:40:17;;;;;;;18.10;13.05;;;;;;;;;;5056410;28;20069;-78
2022/12/09 03:42:47;;;;;;;19.63;13.27;;;;;;;;;;5055441;28;20093;-78
2022/12/09 03:45:14;;;;;;;20.17;13.68;;;;;;;;;;5055979;28;20040;-78
2022/12/09 03:47:41;;;;;;;20.58;14.60;;;;;;;;;;5057203;28;20067;-78
2022/12/09 03:50:07;;;;;;;24.40;14.35;;;;;;;;;;5070193;28;20120;-77
2022/12/09 03:52:43;;;;;;;18.20;13.68;;;;;;;;;;5063449;28;20043;-77
2022/12/09 03:55:15;;;;;;;20.20;13.75;;;;;;;;;;5060156;28;20084;-77
2022/12/09 03:57:43;;;;;;;20.15;14.00;;;;;;;;;;5064648;28;20037;-77
2022/12/09 04:00:09;;;;;;;19.25;14.35;;;;;;;;;;5060364;28;20087;-77
2022/12/09 04:02:35;;;;;;;21.20;14.25;;;;;;;;;;5067172;28;20062;-77
2022/12/09 04:05:01;;;;;;;26.10;15.40;;;;;;;;;;5069374;28;20040;-77
2022/12/09 04:07:27;;;;;;;24.85;14.88;;;;;;;;;;5066678;28;20041;-77
2022/12/09 04:09:53;;;;;;;23.25;14.88;;;;;;;;;;5064193;28;20040;-77
2022/12/09 04:12:19;;;;;;;25.02;15.32;;;;;;;;;;5067077;28;20136;-77
2022/12/09 04:14:45;;;;;;;25.38;15.52;;;;;;;;;;5061845;28;20399;-77
2022/12/09 04:17:12;;;;;;;26.83;15.80;;;;;;;;;;5061265;28;20474;-77
2022/12/09 04:19:38;;;;;;;25.42;15.98;;;;;;;;;;5068786;28;20036;-78
2022/12/09 04:22:04;;;;;;;25.10;16.48;;;;;;;;;;5067501;28;20048;-77
2022/12/09 04:24:30;;;;;;;26.08;16.20;;;;;;;;;;5062542;28;20067;-77
2022/12/09 04:26:56;;;;;;;25.77;16.17;;;;;;;;;;5064900;28;20044;-77
2022/12/09 04:29:22;;;;;;;24.65;15.50;;;;;;;;;;5060955;28;20114;-77
2022/12/09 04:31:48;;;;;;;27.60;16.13;;;;;;;;;;5064826;28;20049;-77
2022/12/09 04:34:14;;;;;;;26.30;16.05;;;;;;;;;;5061023;28;20060;-77
2022/12/09 04:36:40;;;;;;;27.33;16.05;;;;;;;;;;5068050;28;20057;-76
2022/12/09 04:39:06;;;;;;;27.73;16.27;;;;;;;;;;5061330;28;20123;-77
2022/12/09 04:41:32;;;;;;;24.95;15.80;;;;;;;;;;5063223;28;20055;-77
2022/12/09 04:43:58;;;;;;;26.52;15.70;;;;;;;;;;5059865;28;20484;-77
2022/12/09 04:46:24;;;;;;;26.58;14.88;;;;;;;;;;5066628;28;20077;-77
2022/12/09 04:48:50;;;;;;;27.08;15.48;;;;;;;;;;5064090;28;20075;-77
2022/12/09 04:51:16;;;;;;;24.90;15.75;;;;;;;;;;5063834;28;20048;-77
2022/12/09 04:53:43;;;;;;;27.77;15.48;;;;;;;;;;5066182;28;20053;-77
2022/12/09 04:56:17;;;;;;;26.13;15.27;;;;;;;;;;5063343;28;20055;-77
2022/12/09 04:58:43;;;;;;;22.77;15.02;;;;;;;;;;5051035;28;20110;-77
2022/12/09 05:01:10;;;;;;;26.17;16.00;;;;;;;;;;5059673;28;20040;-77
2022/12/09 05:03:37;;;;;;;27.45;15.80;;;;;;;;;;5062949;28;20522;-77
2022/12/09 05:06:06;;;;;;;28.17;16.17;;;;;;;;;;5066538;28;20157;-77
2022/12/09 05:08:32;;;;;;;26.45;15.80;;;;;;;;;;5062938;28;20059;-77
2022/12/09 05:10:59;;;;;;;28.23;15.90;;;;;;;;;;5064196;28;20033;-77
2022/12/09 05:13:28;;;;;;;24.80;15.68;;;;;;;;;;5064648;28;20044;-77
2022/12/09 05:15:58;;;;;;;26.95;15.52;;;;;;;;;;5060261;28;20101;-77
2022/12/09 05:18:24;;;;;;;26.05;15.65;;;;;;;;;;5052785;28;20102;-77
2022/12/09 05:20:50;;;;;;;27.27;14.98;;;;;;;;;;5057035;28;20048;-77
2022/12/09 05:23:16;;;;;;;25.50;14.48;;;;;;;;;;5057155;28;20048;-78
2022/12/09 05:25:52;;;;;;;24.80;16.48;;;;;;;;;;5055127;28;20045;-77
2022/12/09 05:28:18;;;;;;;24.80;15.38;;;;;;;;;;5054520;28;20196;-77
2022/12/09 05:30:44;;;;;;;26.13;15.18;;;;;;;;;;5058196;28;20520;-77
2022/12/09 05:33:10;;;;;;;28.92;15.98;;;;;;;;;;5050707;28;20079;-78
2022/12/09 05:35:36;;;;;;;26.20;15.93;;;;;;;;;;5056074;28;20128;-77
2022/12/09 05:38:02;;;;;;;26.40;15.43;;;;;;;;;;5055870;28;20171;-77
2022/12/09 05:40:28;;;;;;;24.67;16.02;;;;;;;;;;5054367;28;20427;-78
2022/12/09 05:42:54;;;;;;;26.65;15.80;;;;;;;;;;5057967;28;20048;-77
2022/12/09 05:45:20;;;;;;;24.77;15.73;;;;;;;;;;5054621;28;20047;-78
2022/12/09 05:47:46;;;;;;;23.33;14.38;;;;;;;;;;5059007;28;20036;-77
2022/12/09 05:50:12;;;;;;;27.60;15.18;;;;;;;;;;5051466;28;20048;-78
2022/12/09 05:52:38;;;;;;;23.33;14.57;;;;;;;;;;5066165;28;20055;-77
2022/12/09 05:55:09;;;;;;;25.75;14.27;;;;;;;;;;5062968;28;20045;-77
2022/12/09 05:57:35;;;;;;;26.67;15.10;;;;;;;;;;5072829;28;20578;-77
2022/12/09 06:00:02;;;;;;;27.10;15.88;;;;;;;;;;5067860;28;20045;-77
2022/12/09 06:02:28;;;;;;;24.02;14.02;;;;;;;;;;5062029;28;20106;-77
2022/12/09 06:04:54;;;;;;;25.75;15.70;;;;;;;;;;5071832;28;20663;-77
2022/12/09 06:07:20;;;;;;;24.73;14.25;;;;;;;;;;5061109;28;20068;-77
2022/12/09 06:09:46;;;;;;;23.23;13.82;;;;;;;;;;5068352;28;20090;-77
2022/12/09 06:12:12;;;;;;;24.70;15.15;;;;;;;;;;5067768;28;20057;-78
2022/12/09 06:14:38;;;;;;;22.92;14.02;;;;;;;;;;5067387;28;20466;-77
2022/12/09 06:17:04;;;;;;;28.45;17.17;;;;;;;;;;5067884;28;20049;-77
2022/12/09 06:19:30;;;;;;;26.08;14.90;;;;;;;;;;5069376;28;20036;-78
2022/12/09 06:21:56;;;;;;;23.17;13.65;;;;;;;;;;5066398;28;20532;-77
2022/12/09 06:24:22;;;;;;;23.90;14.90;;;;;;;;;;5068066;28;20136;-78
2022/12/09 06:26:48;;;;;;;24.63;14.90;;;;;;;;;;5065062;28;20119;-77
2022/12/09 06:29:14;;;;;;;25.35;14.73;;;;;;;;;;5065879;28;20074;-77
2022/12/09 06:31:40;;;;;;;24.55;14.57;;;;;;;;;;5068013;28;20041;-78
2022/12/09 06:34:06;;;;;;;25.15;14.73;;;;;;;;;;5067925;28;20433;-78
2022/12/09 06:36:32;;;;;;;31.23;17.85;;;;;;;;;;5064909;28;20079;-78
2022/12/09 06:39:05;;;;;;;29.80;17.05;;;;;;;;;;5066279;28;20132;-77
2022/12/09 06:41:31;;;;;;;24.92;14.65;;;;;;;;;;5058062;28;20075;-77
2022/12/09 06:43:57;;;;;;;27.30;13.68;;;;;;;;;;5066256;28;20040;-76
2022/12/09 06:46:23;;;;;;;24.65;13.50;;;;;;;;;;5064779;28;20045;-77
2022/12/09 06:48:50;;;;;;;23.10;13.25;;;;;;;;;;5063610;28;20044;-77
2022/12/09 06:51:16;;;;;;;22.40;13.38;;;;;;;;;;5071818;28;20036;-77
2022/12/09 06:53:42;;;;;;;21.20;13.35;;;;;;;;;;5066052;28;20041;-77
2022/12/09 06:56:09;;;;;;;22.88;13.70;;;;;;;;;;5069477;28;20127;-77
2022/12/09 06:58:35;;;;;;;23.30;13.30;;;;;;;;;;5064645;28;20508;-76
2022/12/09 07:01:05;;;;;;;24.98;13.40;;;;;;;;;;5063835;28;20087;-76
2022/12/09 07:03:31;;;;;;;21.85;13.52;;;;;;;;;;5064339;28;20052;-77
2022/12/09 07:05:57;;;;;;;23.38;13.32;;;;;;;;;;5068406;28;20049;-76
2022/12/09 07:08:23;;;;;;;21.00;13.48;;;;;;;;;;5070654;28;20135;-76
2022/12/09 07:10:49;;;;;;;21.48;13.05;;;;;;;;;;5068724;28;20124;-76
2022/12/09 07:13:15;;;;;;;25.02;14.85;;;;;;;;;;5065074;28;20055;-76
2022/12/09 07:15:41;;;;;;;21.05;13.52;;;;;;;;;;5070706;28;20455;-76
2022/12/09 07:18:07;;;;;;;25.75;13.98;;;;;;;;;;5062669;28;20054;-76
2022/12/09 07:20:36;;;;;;;23.27;13.70;;;;;;;;;;5063291;28;20044;-78
2022/12/09 07:23:02;;;;;;;22.73;13.07;;;;;;;;;;5067689;28;20097;-76
2022/12/09 07:25:28;;;;;;;19.95;12.38;;;;;;;;;;5068827;28;21448;-76
2022/12/09 07:27:54;;;;;;;21.95;13.40;;;;;;;;;;5070726;28;20083;-75
2022/12/09 07:30:20;;;;;;;22.73;13.15;;;;;;;;;;5068259;28;20036;-76
2022/12/09 07:32:46;;;;;;;24.00;13.90;;;;;;;;;;5068266;28;20123;-76
2022/12/09 07:35:12;;;;;;;21.75;13.48;;;;;;;;;;5069005;28;20052;-76
2022/12/09 07:37:38;;;;;;;22.60;13.98;;;;;;;;;;5073335;28;20415;-76
2022/12/09 07:40:05;;;;;;;23.38;13.77;;;;;;;;;;5068945;28;20090;-76
2022/12/09 07:42:31;;;;;;;25.60;13.75;;;;;;;;;;5066910;28;20387;-76
2022/12/09 07:44:57;;;;;;;22.20;13.90;;;;;;;;;;5063852;28;20055;-76
2022/12/09 07:47:23;;;;;;;25.27;15.20;;;;;;;;;;5062410;28;20480;-76
2022/12/09 07:49:49;;;;;;;22.55;13.85;;;;;;;;;;5069704;28;20097;-76
2022/12/09 07:52:15;;;;;;;24.15;13.68;;;;;;;;;;5067036;28;20048;-76
2022/12/09 07:54:41;;;;;;;24.50;13.75;;;;;;;;;;5072001;28;20063;-76
2022/12/09 07:57:07;;;;;;;22.88;13.32;;;;;;;;;;5066611;28;20131;-76
2022/12/09 07:59:33;;;;;;;22.13;14.48;;;;;;;;;;5067816;28;20518;-76
2022/12/09 08:01:59;;;;;;;24.90;13.90;;;;;;;;;;5068463;28;20068;-77
2022/12/09 08:04:25;;;;;;;23.02;14.07;;;;;;;;;;5067336;28;20145;-78
2022/12/09 08:06:51;;;;;;;21.65;13.48;;;;;;;;;;5068030;28;20048;-78
2022/12/09 08:09:17;;;;;;;24.40;14.57;;;;;;;;;;5066168;28;20067;-78
2022/12/09 08:11:43;;;;;;;25.15;14.25;;;;;;;;;;5068066;28;20064;-78
2022/12/09 08:14:10;;;;;;;25.67;13.35;;;;;;;;;;5062071;28;20118;-78
2022/12/09 08:16:36;;;;;;;45.13;40.63;;;;;;;;;;5067248;28;20045;-78
2022/12/09 08:19:02;;;;;;;39.95;36.03;;;;;;;;;;5068076;28;20063;-77
2022/12/09 08:21:29;;;;;;;24.17;16.83;;;;;;;;;;5057699;28;20115;-78
2022/12/09 08:23:57;;;;;;;22.13;13.80;;;;;;;;;;5065706;28;20044;-78
2022/12/09 08:26:25;;;;;;;23.67;12.90;;;;;;;;;;5068646;28;20141;-78
2022/12/09 08:28:51;;;;;;;22.65;13.82;;;;;;;;;;5068542;28;20037;-78
2022/12/09 08:31:19;;;;;;;23.85;13.93;;;;;;;;;;5066180;28;20052;-78
2022/12/09 08:33:45;;;;;;;23.48;13.38;;;;;;;;;;5067840;28;20059;-78
2022/12/09 08:36:12;;;;;;;22.75;13.60;;;;;;;;;;5064223;28;20048;-78
2022/12/09 08:38:39;;;;;;;26.85;13.48;;;;;;;;;;5061993;28;20052;-78
2022/12/09 08:41:12;;;;;;;23.65;14.48;;;;;;;;;;5063374;28;20059;-78
2022/12/09 08:43:38;;;;;;;26.65;14.57;;;;;;;;;;5068552;28;20063;-78
2022/12/09 08:46:04;;;;;;;25.55;15.25;;;;;;;;;;5067993;28;20049;-78
2022/12/09 08:48:30;;;;;;;23.98;14.02;;;;;;;;;;5064075;28;20066;-77
2022/12/09 08:50:57;;;;;;;26.73;14.23;;;;;;;;;;5068643;28;20606;-77
2022/12/09 08:53:23;;;;;;;26.40;14.30;;;;;;;;;;5068047;28;20047;-77
2022/12/09 08:55:49;;;;;;;27.00;14.43;;;;;;;;;;5065609;28;20404;-77
2022/12/09 08:58:15;;;;;;;25.30;15.13;;;;;;;;;;5063780;28;20059;-78
2022/12/09 09:00:41;;;;;;;27.63;15.13;;;;;;;;;;5067890;28;20483;-77
2022/12/09 09:03:07;;;;;;;26.77;15.48;;;;;;;;;;5063322;28;20084;-77
2022/12/09 09:05:33;;;;;;;26.70;15.07;;;;;;;;;;5062547;28;20050;-77
2022/12/09 09:07:59;;;;;;;25.67;13.85;;;;;;;;;;5067383;28;20115;-78
2022/12/09 09:10:25;;;;;;;29.00;15.63;;;;;;;;;;5066573;28;20102;-77
2022/12/09 09:12:51;;;;;;;29.83;15.55;;;;;;;;;;5066107;28;20369;-77
2022/12/09 09:15:17;;;;;;;24.70;14.40;;;;;;;;;;5068616;28;20106;-77
2022/12/09 09:17:43;;;;;;;25.58;14.88;;;;;;;;;;5062845;28;20044;-77
2022/12/09 09:20:09;;;;;;;30.48;15.40;;;;;;;;;;5066532;28;20040;-77
2022/12/09 09:22:35;;;;;;;28.48;15.48;;;;;;;;;;5059758;28;20052;-77
2022/12/09 09:25:01;;;;;;;29.98;15.88;;;;;;;;;;5062231;28;21867;-77
2022/12/09 09:27:28;;;;;;;30.95;16.27;;;;;;;;;;5066181;28;20040;-76
2022/12/09 09:29:54;;;;;;;31.33;16.67;;;;;;;;;;5064566;28;20043;-76
2022/12/09 09:32:20;;;;;;;32.47;17.30;;;;;;;;;;5069252;28;20048;-77
2022/12/09 09:34:48;;;;;;;32.70;17.23;;;;;;;;;;5069070;28;20053;-76
2022/12/09 09:37:15;;;;;;;31.30;16.38;;;;;;;;;;5071175;28;20052;-77
2022/12/09 09:39:41;;;;;;;30.67;16.40;;;;;;;;;;5070204;28;20048;-76
2022/12/09 09:42:12;;;;;;;31.25;16.90;;;;;;;;;;5067035;28;20049;-77
2022/12/09 09:44:44;;;;;;;31.35;17.15;;;;;;;;;;5070352;28;20040;-76
2022/12/09 09:47:16;;;;;;;35.53;18.30;;;;;;;;;;5070661;28;20045;-76
2022/12/09 09:49:45;;;;;;;32.05;17.83;;;;;;;;;;5069518;28;20074;-76
2022/12/09 09:52:22;;;;;;;34.67;18.20;;;;;;;;;;5068652;28;20044;-77
2022/12/09 09:54:48;;;;;;;33.75;17.25;;;;;;;;;;5063973;28;20044;-76
2022/12/09 09:57:26;;;;;;;36.60;19.42;;;;;;;;;;5069948;28;20079;-77
2022/12/09 09:59:59;;;;;;;32.55;17.83;;;;;;;;;;5064662;28;20044;-76
2022/12/09 10:02:37;;;;;;;38.22;18.30;;;;;;;;;;5070648;28;20160;-77
2022/12/09 10:05:06;;;;;;;34.25;17.27;;;;;;;;;;5070563;28;20063;-77
2022/12/09 10:07:40;;;;;;;32.45;15.88;;;;;;;;;;5070703;28;20564;-77
2022/12/09 10:10:15;;;;;;;35.67;17.73;;;;;;;;;;5068921;28;20058;-77
2022/12/09 10:12:47;;;;;;;35.13;18.25;;;;;;;;;;5070950;28;20388;-76
2022/12/09 10:15:15;;;;;;;33.75;18.05;;;;;;;;;;5069352;28;20047;-77
2022/12/09 10:17:59;;;;;;;31.63;16.27;;;;;;;;;;5070169;28;20051;-77
2022/12/09 10:20:26;;;;;;;32.88;16.73;;;;;;;;;;5069026;28;20579;-76
2022/12/09 10:22:59;;;;;;;30.73;16.27;;;;;;;;;;5069564;28;20507;-76
2022/12/09 10:25:26;;;;;;;29.42;15.98;;;;;;;;;;5068706;28;20048;-77
2022/12/09 10:27:56;;;;;;;30.00;16.88;;;;;;;;;;5067124;28;20044;-76
2022/12/09 10:30:22;;;;;;;32.20;16.73;;;;;;;;;;5069986;28;20048;-76
2022/12/09 10:32:48;;;;;;;30.02;16.80;;;;;;;;;;5069543;28;20135;-77
2022/12/09 10:35:16;;;;;;;32.95;18.23;;;;;;;;;;5066946;28;20045;-76
2022/12/09 10:37:42;;;;;;;31.08;17.67;;;;;;;;;;5068517;28;20044;-76
2022/12/09 10:40:08;;;;;;;33.08;18.13;;;;;;;;;;5064851;28;20040;-76
2022/12/09 10:45:27;;;;;;;32.03;17.85;;;;;;;;;;5066122;28;20048;-76
2022/12/09 10:47:53;;;;;;;31.13;17.48;;;;;;;;;;5060719;28;20401;-76
2022/12/09 10:50:25;;;;;;;30.65;16.80;;;;;;;;;;5067409;28;20045;-76
2022/12/09 10:52:51;;;;;;;31.33;16.77;;;;;;;;;;5064829;28;20539;-76
2022/12/09 10:55:30;;;;;;;33.65;18.15;;;;;;;;;;5068558;28;20052;-76
2022/12/09 10:58:09;;;;;;;30.25;17.20;;;;;;;;;;5065102;28;20125;-76
2022/12/09 11:00:35;;;;;;;30.67;16.83;;;;;;;;;;5067711;28;20068;-76
2022/12/09 11:03:01;;;;;;;30.70;16.42;;;;;;;;;;5067797;28;20518;-76
2022/12/09 11:05:29;;;;;;;29.75;16.55;;;;;;;;;;5068688;28;20045;-76
2022/12/09 11:07:56;;;;;;;27.02;15.80;;;;;;;;;;5063069;28;20044;-76
2022/12/09 11:10:23;;;;;;;26.13;14.27;;;;;;;;;;5066253;28;20041;-77
2022/12/09 11:12:50;;;;;;;25.77;14.68;;;;;;;;;;5070623;28;20063;-76
2022/12/09 11:15:59;;;;;;;27.88;16.10;;;;;;;;;;5067335;28;20157;-76
2022/12/09 11:18:28;;;;;;;26.27;14.93;;;;;;;;;;5019861;28;20085;-76
2022/12/09 11:21:02;;;;;;;24.05;13.45;;;;;;;;;;5005788;28;20445;-76
2022/12/09 11:23:29;;;;;;;28.02;16.85;;;;;;;;;;5041298;28;20147;-77
2022/12/09 11:25:59;;;;;;;27.17;15.48;;;;;;;;;;5070716;28;20044;-77
2022/12/09 11:28:29;;;;;;;29.17;15.65;;;;;;;;;;5068086;28;21970;-77
2022/12/09 11:30:57;;;;;;;26.42;16.50;;;;;;;;;;5067084;28;20456;-77
2022/12/09 11:33:28;;;;;;;28.33;16.88;;;;;;;;;;5064852;28;20447;-77
2022/12/09 11:35:56;;;;;;;28.30;16.52;;;;;;;;;;5063343;28;20093;-77
2022/12/09 11:38:39;;;;;;;29.90;18.23;;;;;;;;;;5067199;28;20135;-78
2022/12/09 11:41:08;;;;;;;30.52;17.98;;;;;;;;;;5065396;28;20668;-77
2022/12/09 11:43:38;;;;;;;31.13;18.08;;;;;;;;;;5066728;28;20078;-77
2022/12/09 11:46:13;;;;;;;29.83;17.33;;;;;;;;;;5065684;28;20045;-77
2022/12/09 11:48:40;;;;;;;28.50;15.32;;;;;;;;;;5067737;28;20040;-77
2022/12/09 11:51:06;;;;;;;27.88;16.67;;;;;;;;;;5067095;28;20080;-77
2022/12/09 11:53:33;;;;;;;28.05;16.75;;;;;;;;;;5066915;28;20124;-77
2022/12/09 11:56:16;;;;;;;25.23;15.52;;;;;;;;;;5066315;28;20040;-77
2022/12/09 11:58:44;;;;;;;26.65;15.60;;;;;;;;;;5063510;28;20040;-76
2022/12/09 12:01:12;;;;;;;25.63;15.43;;;;;;;;;;5062800;28;20033;-76
2022/12/09 12:03:46;;;;;;;28.90;17.00;;;;;;;;;;5067399;28;20127;-76
2022/12/09 12:06:22;;;;;;;29.48;16.85;;;;;;;;;;5066953;28;20052;-76
2022/12/09 12:08:50;;;;;;;27.33;15.60;;;;;;;;;;5061861;28;20072;-76
2022/12/09 12:11:18;;;;;;;26.40;15.50;;;;;;;;;;5068302;28;20037;-77
2022/12/09 12:13:46;;;;;;;29.13;17.45;;;;;;;;;;5067132;28;20400;-76
2022/12/09 12:16:27;;;;;;;25.55;16.92;;;;;;;;;;5068729;28;20048;-75
2022/12/09 12:18:56;;;;;;;27.02;15.88;;;;;;;;;;5061234;28;20051;-74
2022/12/09 12:21:41;;;;;;;27.70;16.58;;;;;;;;;;5066327;28;20044;-76
2022/12/09 12:24:16;;;;;;;28.98;15.55;;;;;;;;;;5062870;28;20523;-76
2022/12/09 12:26:54;;;;;;;27.65;16.50;;;;;;;;;;5063052;28;20086;-76
2022/12/09 12:29:38;;;;;;;25.10;15.65;;;;;;;;;;5066395;28;20089;-76
2022/12/09 12:32:04;;;;;;;25.67;15.68;;;;;;;;;;5070413;28;20033;-77
2022/12/09 12:34:30;;;;;;;28.15;16.50;;;;;;;;;;5064284;28;20514;-77
2022/12/09 12:37:00;;;;;;;25.98;16.23;;;;;;;;;;5064550;28;20049;-76
2022/12/09 12:39:33;;;;;;;25.13;16.17;;;;;;;;;;5065034;28;20507;-77
2022/12/09 12:42:09;;;;;;;23.58;14.65;;;;;;;;;;5064630;28;20044;-77
2022/12/09 12:47:45;;;;;;;22.65;13.57;;;;;;;;;;5064579;28;20444;-76
2022/12/09 12:50:11;;;;;;;25.90;15.82;;;;;;;;;;5063685;28;20132;-76
2022/12/09 12:52:40;;;;;;;22.02;13.82;;;;;;;;;;5062957;28;20044;-76
2022/12/09 12:55:13;;;;;;;21.60;14.07;;;;;;;;;;5064359;28;20097;-77
2022/12/09 12:57:59;;;;;;;21.20;13.73;;;;;;;;;;5064635;28;20048;-77
2022/12/09 13:00:28;;;;;;;20.23;13.82;;;;;;;;;;5066251;28;20056;-77
2022/12/09 13:03:11;;;;;;;19.58;12.82;;;;;;;;;;5061269;28;20033;-77
2022/12/09 13:05:41;;;;;;;20.25;12.90;;;;;;;;;;5068345;28;20136;-77
2022/12/09 13:08:18;;;;;;;17.48;12.23;;;;;;;;;;5066389;28;20041;-77
2022/12/09 13:10:49;;;;;;;17.70;13.10;;;;;;;;;;5056989;28;20079;-77
2022/12/09 13:13:24;;;;;;;20.00;13.82;;;;;;;;;;5065925;28;20033;-77
2022/12/09 13:15:52;;;;;;;19.73;13.82;;;;;;;;;;5067644;28;20055;-77
2022/12/09 13:18:21;;;;;;;20.58;14.18;;;;;;;;;;5064104;28;20052;-77
2022/12/09 13:20:49;;;;;;;21.15;15.23;;;;;;;;;;5063410;28;20048;-78
2022/12/09 13:23:18;;;;;;;20.80;14.32;;;;;;;;;;5053160;28;20048;-79
2022/12/09 13:26:01;;;;;;;19.05;14.05;;;;;;;;;;5062224;28;20697;-78
2022/12/09 13:28:30;;;;;;;20.60;14.20;;;;;;;;;;5061429;28;20052;-77
2022/12/09 13:30:58;;;;;;;20.98;15.02;;;;;;;;;;5061641;28;20047;-77
2022/12/09 13:33:29;;;;;;;20.60;15.60;;;;;;;;;;5066844;28;20061;-76
2022/12/09 13:36:07;;;;;;;22.00;15.93;;;;;;;;;;5066615;28;20530;-76
2022/12/09 13:38:41;;;;;;;23.48;16.13;;;;;;;;;;5067015;28;20051;-77
2022/12/09 13:41:28;;;;;;;20.92;15.55;;;;;;;;;;5065218;28;20041;-77
2022/12/09 13:44:16;;;;;;;24.05;16.77;;;;;;;;;;5066225;28;20056;-77
2022/12/09 13:46:42;;;;;;;22.95;16.60;;;;;;;;;;5066690;28;20043;-77
2022/12/09 13:49:18;;;;;;;24.40;16.05;;;;;;;;;;5068550;28;20044;-77
2022/12/09 13:51:47;;;;;;;25.15;16.55;;;;;;;;;;5066390;28;20039;-77
2022/12/09 13:54:16;;;;;;;22.63;15.48;;;;;;;;;;5064150;28;20048;-77
2022/12/09 13:56:43;;;;;;;26.75;17.35;;;;;;;;;;5067199;28;20041;-77
2022/12/09 13:59:09;;;;;;;26.88;18.48;;;;;;;;;;5067099;28;20048;-77
2022/12/09 14:01:38;;;;;;;25.77;17.60;;;;;;;;;;5064397;28;20048;-78
2022/12/09 14:04:10;;;;;;;25.20;16.98;;;;;;;;;;5069961;28;20456;-77
2022/12/09 14:06:36;;;;;;;27.30;18.00;;;;;;;;;;5064995;28;20504;-77
2022/12/09 14:09:04;;;;;;;25.77;16.60;;;;;;;;;;5060039;28;20040;-76
2022/12/09 14:11:36;;;;;;;27.05;16.90;;;;;;;;;;5064182;28;20181;-76
2022/12/09 14:14:21;;;;;;;26.63;18.40;;;;;;;;;;5067585;28;20055;-76
2022/12/09 14:16:47;;;;;;;25.83;17.30;;;;;;;;;;5064493;28;20475;-76
2022/12/09 14:19:26;;;;;;;24.77;16.88;;;;;;;;;;5064526;28;20055;-76
2022/12/09 14:22:16;;;;;;;24.92;17.02;;;;;;;;;;5071887;28;20119;-76
2022/12/09 14:24:48;;;;;;;22.80;16.83;;;;;;;;;;5071401;28;20045;-76
2022/12/09 14:27:19;;;;;;;21.90;15.95;;;;;;;;;;5068584;28;20052;-77
2022/12/09 14:29:48;;;;;;;23.95;15.68;;;;;;;;;;5070830;28;20111;-76
2022/12/09 14:32:33;;;;;;;23.73;16.20;;;;;;;;;;5067268;28;20133;-77
2022/12/09 14:35:19;;;;;;;23.75;15.60;;;;;;;;;;5055262;28;20056;-76